Rutland Town, Vermont
Current Conditions -  °F | °C
As of 8:35 PM on Wednesday 26 Nov 2014 (Local Time) from KRUT Reporting Station
Overcast Overcast  
Wind Chill: 17°   Ceiling: 600
Heat Index: 27°   Visibility: 2.5mi
Dew Point: 27°   Wind: 9mph
Humidity: 100%   Direction: 330°NNW
Pressure: 29.92"   Gusts: NA
Location:  43.6369°N, 72.9375°W
Report Text: KRUT 270135Z 33008KT 2 1/2SM BKN006 OVC016 M03/M03 A2992 RMK AO1
Loading
Personal Weather Stations






























Interactive Weather Map New forecast layout! Learn more

10-Day Weather Forecast

Advertisements
Track Severe Weather on mobile